Portada
METAR-TAF:

METAR-TAF

Aeropuertos :

Aeropuerto de Homer

Homer, Alaska, Estados Unidos

latitud: 59-39N, longitud: 151-29W, altitud: 26 m

Observación

El informe se hizo hace 1 hora y 26 minutos, a las 21:53 UTC
Viento 5 kt del sur-suroeste
Temperatura 1°C
Humedad 51%
Presión 1034 hPa
Visibilidad: 16.1 km
Cielo despejado

METAR: PAHO 252153Z 20005KT 10SM CLR 01/M08 A3052 RMK AO2 SLP337 T00111083

Hora: 15:19 (23:19 UTC)

Pronóstico

El informe se hizo hace 5 horas y 46 minutos, a las 17:33 UTC
Pronóstico válido del 25 a las 18 UTC al 26 a las 18 UTC
Viento 7 kt del norte-noreste
Visibilidad: 10 km
Cielo despejado

TAF: PAHO 251733Z 2518/2618 02007KT P6SM SKC

Observaciones y pronósticos meteorológicos de más de 4000 aeropuertos (mensajes METAR y TAF).

Los puntos amarillos y rojos representan las estaciones disponibles.

Ponga el ratón en el punto deseado para ver el nombre de la estación.

Haga clic para ver las observaciones y los pronósticos meteorológicos.

Para cambiar el mapa : haga clic en los botones verdes con una cruz de color negro para hacer un zoom, en el botón verde con un guión para alejar o en las flechas verdes para mapas adyacentes.


METAR-TAF: